Time;durP1;ratioP1;P1;durP2;ratioP2;P2;SDS_P1;SDS_P2;PMS_P1;PMS_P2;Temp;Humidity;BMP_temperature;BMP_pressure;BME280_temperature;BME280_humidity;BME280_pressure;Samples;Min_cycle;Max_cycle;Signal;HPM_P1;HPM_P2
2022/05/18 00:00:27;;;;;;;67.63;41.08;;;27.70;99.90;;;;;;5057800;28;20270;-61
2022/05/18 00:02:56;;;;;;;72.72;41.17;;;27.70;99.90;;;;;;5057344;28;20049;-61
2022/05/18 00:05:23;;;;;;;70.93;41.95;;;27.70;99.90;;;;;;5058192;28;20386;-59
2022/05/18 00:07:50;;;;;;;67.43;46.72;;;27.80;99.90;;;;;;5057537;28;20036;-61
2022/05/18 00:10:18;;;;;;;87.22;59.05;;;27.90;99.90;;;;;;5058346;28;20033;-61
2022/05/18 00:12:47;;;;;;;100.43;62.55;;;27.90;99.90;;;;;;5058055;28;20032;-64
2022/05/18 00:15:15;;;;;;;87.15;55.28;;;28.00;99.90;;;;;;5058515;28;20354;-61
2022/05/18 00:17:42;;;;;;;77.95;48.97;;;28.00;99.90;;;;;;5057361;28;20135;-61
2022/05/18 00:20:10;;;;;;;109.72;75.20;;;28.00;99.90;;;;;;5057162;28;20029;-61
2022/05/18 00:22:51;;;;;;;70.47;51.13;;;28.00;99.90;;;;;;5057776;28;20048;-60
2022/05/18 00:25:20;;;;;;;55.50;38.42;;;28.10;99.90;;;;;;5055637;28;20021;-61
2022/05/18 00:27:47;;;;;;;53.45;36.92;;;28.00;99.90;;;;;;5055524;28;20048;-60
2022/05/18 00:30:15;;;;;;;87.50;64.38;;;28.10;99.90;;;;;;5055556;28;20045;-61
2022/05/18 00:32:43;;;;;;;66.85;42.40;;;28.20;99.90;;;;;;5053388;28;20375;-60
2022/05/18 00:35:11;;;;;;;51.80;35.67;;;28.20;99.90;;;;;;5054801;28;20028;-61
2022/05/18 00:37:38;;;;;;;57.20;40.05;;;28.20;99.90;;;;;;5055333;28;20029;-60
2022/05/18 00:40:06;;;;;;;56.65;40.38;;;28.10;99.90;;;;;;5044155;28;20086;-62
2022/05/18 00:42:33;;;;;;;64.95;43.22;;;28.10;99.90;;;;;;5055298;28;20378;-60
2022/05/18 00:44:59;;;;;;;58.85;41.20;;;28.20;99.90;;;;;;5054082;28;20496;-61
2022/05/18 00:47:26;;;;;;;64.25;42.67;;;28.20;99.90;;;;;;5054842;28;20428;-61
2022/05/18 00:50:10;;;;;;;46.45;31.10;;;28.30;99.90;;;;;;5054491;28;20115;-61
2022/05/18 00:52:40;;;;;;;47.42;32.50;;;28.20;99.90;;;;;;5050321;28;20031;-63
2022/05/18 00:55:11;;;;;;;55.63;33.63;;;28.20;99.90;;;;;;5054439;28;20359;-61
2022/05/18 00:57:56;;;;;;;45.13;32.30;;;28.20;99.90;;;;;;5049886;28;20044;-62
2022/05/18 01:00:23;;;;;;;44.65;32.05;;;28.30;99.90;;;;;;5054758;28;20020;-60
2022/05/18 01:02:57;;;;;;;43.28;31.42;;;28.30;99.90;;;;;;5050330;28;20028;-62
2022/05/18 01:05:30;;;;;;;41.45;30.92;;;28.30;99.90;;;;;;5045189;28;20033;-62
2022/05/18 01:07:59;;;;;;;45.78;31.48;;;28.40;99.90;;;;;;5048490;28;20104;-61
2022/05/18 01:10:28;;;;;;;49.40;31.17;;;28.40;99.90;;;;;;5054443;28;20444;-61
2022/05/18 01:12:59;;;;;;;54.92;38.70;;;28.50;99.90;;;;;;5053914;28;20074;-61
2022/05/18 01:15:26;;;;;;;43.13;33.27;;;28.50;99.90;;;;;;5053828;28;20033;-65
2022/05/18 01:17:58;;;;;;;43.13;32.22;;;28.60;99.90;;;;;;5049355;28;20518;-68
2022/05/18 01:20:32;;;;;;;45.35;34.00;;;28.60;99.90;;;;;;5044457;28;20371;-67
2022/05/18 01:23:24;;;;;;;48.03;35.88;;;28.70;99.90;;;;;;5048912;28;20025;-67
2022/05/18 01:25:56;;;;;;;;;;;28.70;99.90;;;;;;5054098;28;20482;-68
2022/05/18 01:28:29;;;;;;;53.28;37.50;;;28.80;99.90;;;;;;5053864;28;19912;-68
2022/05/18 01:30:55;;;;;;;54.13;36.15;;;28.90;99.90;;;;;;5035688;28;20437;-69
2022/05/18 01:33:22;;;;;;;42.72;30.60;;;28.90;99.90;;;;;;5050335;28;20017;-73
2022/05/18 01:35:49;;;;;;;43.17;33.00;;;29.00;99.90;;;;;;5053891;28;20481;-67
2022/05/18 01:38:17;;;;;;;44.85;29.10;;;29.10;99.90;;;;;;5054994;28;20023;-65
2022/05/18 01:40:50;;;;;;;45.08;29.08;;;29.10;99.90;;;;;;5054096;28;20028;-65
2022/05/18 01:43:20;;;;;;;44.00;27.45;;;29.10;99.90;;;;;;5054875;28;20024;-65
2022/05/18 01:46:04;;;;;;;83.60;54.85;;;29.10;99.90;;;;;;5054907;28;20466;-65
2022/05/18 01:48:35;;;;;;;42.55;29.85;;;29.30;99.90;;;;;;5038635;28;20034;-67
2022/05/18 01:51:03;;;;;;;38.78;24.25;;;29.40;99.90;;;;;;5042148;28;20048;-67
2022/05/18 01:53:32;;;;;;;65.22;43.88;;;29.50;99.90;;;;;;5053842;28;20516;-67
2022/05/18 01:55:58;;;;;;;33.97;20.50;;;29.50;99.90;;;;;;5054288;28;20031;-67
2022/05/18 01:58:25;;;;;;;41.85;25.30;;;29.50;99.90;;;;;;5053275;28;20032;-68
2022/05/18 02:00:53;;;;;;;50.40;29.70;;;29.50;99.90;;;;;;5052940;28;20032;-66
2022/05/18 02:03:21;;;;;;;52.42;31.77;;;29.60;99.90;;;;;;5052671;28;20025;-69
2022/05/18 02:05:48;;;;;;;35.67;23.98;;;29.60;99.90;;;;;;5052999;28;20078;-68
2022/05/18 02:08:16;;;;;;;29.58;19.85;;;29.60;99.90;;;;;;5053600;28;20028;-68
2022/05/18 02:10:44;;;;;;;34.90;23.50;;;29.70;99.90;;;;;;5053041;28;20098;-70
2022/05/18 02:13:11;;;;;;;40.78;25.00;;;29.80;99.90;;;;;;5053750;28;20033;-68
2022/05/18 02:15:38;;;;;;;38.17;24.27;;;29.80;99.90;;;;;;5050742;28;20280;-67
2022/05/18 02:18:04;;;;;;;38.85;24.63;;;29.80;99.90;;;;;;5053091;28;20021;-67
2022/05/18 02:20:31;;;;;;;105.75;84.82;;;29.80;99.90;;;;;;5053413;28;20049;-70
2022/05/18 02:22:58;;;;;;;32.00;25.25;;;29.80;99.90;;;;;;5053794;28;20112;-67
2022/05/18 02:25:25;;;;;;;40.10;26.52;;;29.80;99.90;;;;;;5053822;28;20385;-68
2022/05/18 02:27:52;;;;;;;42.58;21.95;;;29.80;99.90;;;;;;5052673;28;20462;-67
2022/05/18 02:30:19;;;;;;;60.17;44.00;;;29.90;99.90;;;;;;5052369;28;20025;-69
2022/05/18 02:32:45;;;;;;;44.22;29.63;;;30.00;99.90;;;;;;5052633;28;20041;-64
2022/05/18 02:35:12;;;;;;;30.20;21.67;;;30.10;99.90;;;;;;5064704;28;20029;-68
2022/05/18 02:37:39;;;;;;;38.25;24.27;;;30.20;99.90;;;;;;5050174;28;20044;-67
2022/05/18 02:40:09;;;;;;;65.00;33.22;;;30.30;99.90;;;;;;5052611;28;20032;-68
2022/05/18 02:42:36;;;;;;;35.38;25.25;;;30.50;99.90;;;;;;5052784;28;20414;-69
2022/05/18 02:45:03;;;;;;;86.45;63.17;;;30.60;99.90;;;;;;5052422;28;20013;-68
2022/05/18 02:47:30;;;;;;;38.92;28.80;;;30.70;99.90;;;;;;5051717;28;20029;-68
2022/05/18 02:49:57;;;;;;;64.45;48.15;;;30.60;99.90;;;;;;5052612;28;20486;-69
2022/05/18 02:52:24;;;;;;;25.08;20.67;;;30.60;99.90;;;;;;5052159;28;20025;-68
2022/05/18 02:57:37;;;;;;;29.63;22.27;;;30.70;99.90;;;;;;5050682;28;20029;-69
2022/05/18 03:00:07;;;;;;;29.38;19.58;;;30.70;99.90;;;;;;5043451;28;20025;-69
2022/05/18 03:02:34;;;;;;;26.63;20.73;;;30.80;99.90;;;;;;5050409;28;20024;-69
2022/05/18 03:05:01;;;;;;;31.30;22.20;;;30.90;99.90;;;;;;5051310;28;20037;-71
2022/05/18 03:07:28;;;;;;;33.03;21.98;;;30.90;99.90;;;;;;5055084;28;20359;-68
2022/05/18 03:09:54;;;;;;;32.08;26.70;;;30.80;99.90;;;;;;5057261;28;20047;-70
2022/05/18 03:12:21;;;;;;;39.33;21.27;;;31.00;99.90;;;;;;5055343;28;20428;-71
2022/05/18 03:14:48;;;;;;;42.65;34.17;;;31.20;99.90;;;;;;5051927;28;20017;-71
2022/05/18 03:17:15;;;;;;;23.73;20.83;;;31.20;99.90;;;;;;5037267;28;20022;-72
2022/05/18 03:19:42;;;;;;;30.98;25.05;;;31.20;99.90;;;;;;5037345;28;20029;-72
2022/05/18 03:24:55;;;;;;;26.88;20.63;;;31.30;99.90;;;;;;5052013;28;20037;-72
2022/05/18 03:27:21;;;;;;;47.58;34.63;;;31.40;99.90;;;;;;5052912;28;20108;-71
2022/05/18 03:29:48;;;;;;;51.47;40.88;;;31.30;99.90;;;;;;5056147;28;20474;-71
2022/05/18 03:32:15;;;;;;;31.30;24.83;;;31.50;99.90;;;;;;5056563;28;20056;-70
2022/05/18 03:34:41;;;;;;;25.90;20.60;;;31.40;99.90;;;;;;5053372;28;20028;-69
2022/05/18 03:37:08;;;;;;;45.25;38.40;;;31.30;99.90;;;;;;5053585;28;20447;-70
2022/05/18 03:39:35;;;;;;;31.73;22.05;;;31.30;99.90;;;;;;5056361;28;20115;-70
2022/05/18 03:42:01;;;;;;;33.45;28.08;;;31.30;99.90;;;;;;5055635;28;20100;-69
2022/05/18 03:44:28;;;;;;;24.85;21.67;;;31.20;99.90;;;;;;5055779;28;20027;-70
2022/05/18 03:46:55;;;;;;;40.38;32.95;;;31.10;99.90;;;;;;5048437;28;20104;-70
2022/05/18 03:49:22;;;;;;;29.42;24.88;;;31.10;99.90;;;;;;5045988;28;20024;-70
2022/05/18 03:51:49;;;;;;;38.40;26.58;;;31.00;99.90;;;;;;5052217;28;20079;-70
2022/05/18 03:54:16;;;;;;;26.20;20.80;;;31.00;99.90;;;;;;5054595;28;20052;-73
2022/05/18 03:56:43;;;;;;;38.20;32.30;;;31.00;99.90;;;;;;5054469;28;20079;-70
2022/05/18 03:59:10;;;;;;;31.35;24.08;;;31.00;99.90;;;;;;5056439;28;20025;-72
2022/05/18 04:01:36;;;;;;;34.67;28.90;;;31.20;99.90;;;;;;5052413;28;20029;-72
2022/05/18 04:04:03;;;;;;;47.10;37.95;;;31.20;99.90;;;;;;5056190;28;20017;-72
2022/05/18 04:06:30;;;;;;;28.70;24.33;;;31.30;99.90;;;;;;5055816;28;20013;-71
2022/05/18 04:08:56;;;;;;;30.77;20.42;;;31.30;99.90;;;;;;5050749;28;20025;-72
2022/05/18 04:11:23;;;;;;;25.27;19.27;;;31.20;99.90;;;;;;5055322;28;20021;-69
2022/05/18 04:13:51;;;;;;;32.65;24.95;;;31.30;99.90;;;;;;5056502;28;20037;-71
2022/05/18 04:16:18;;;;;;;27.35;19.83;;;31.30;99.90;;;;;;5051048;28;20037;-71
2022/05/18 04:18:44;;;;;;;32.35;20.63;;;31.30;99.90;;;;;;5055237;28;20043;-71
2022/05/18 04:21:11;;;;;;;26.17;19.08;;;31.30;99.90;;;;;;5056046;28;20254;-71
2022/05/18 04:23:39;;;;;;;36.13;21.42;;;31.30;99.90;;;;;;5054784;28;20035;-72
2022/05/18 04:26:07;;;;;;;53.08;24.73;;;31.30;99.90;;;;;;5052951;28;20017;-69
2022/05/18 04:28:35;;;;;;;30.85;23.25;;;31.40;99.90;;;;;;5051877;28;20537;-70
2022/05/18 04:31:02;;;;;;;35.10;24.13;;;31.50;99.90;;;;;;5038253;28;20049;-70
2022/05/18 04:33:30;;;;;;;27.42;23.80;;;31.50;99.90;;;;;;5057144;28;20055;-71
2022/05/18 04:35:56;;;;;;;25.85;21.20;;;31.50;99.90;;;;;;5033528;28;20458;-69
2022/05/18 04:38:23;;;;;;;34.08;23.70;;;31.60;99.90;;;;;;5053814;28;20167;-70
2022/05/18 04:40:50;;;;;;;53.70;34.88;;;31.70;99.90;;;;;;5051284;28;20024;-70
2022/05/18 04:43:20;;;;;;;30.65;24.98;;;31.80;99.90;;;;;;5055814;28;20087;-71
2022/05/18 04:45:47;;;;;;;25.10;17.17;;;31.90;99.90;;;;;;5052988;28;20028;-70
2022/05/18 04:48:17;;;;;;;29.35;19.80;;;32.00;99.90;;;;;;5052608;28;20474;-72
2022/05/18 04:50:45;;;;;;;27.13;20.75;;;32.00;99.90;;;;;;5050814;28;20363;-73
2022/05/18 04:53:12;;;;;;;28.48;20.25;;;32.00;99.90;;;;;;5056292;28;20032;-71
2022/05/18 04:55:39;;;;;;;28.50;23.25;;;31.90;99.90;;;;;;5045783;28;20029;-69
2022/05/18 04:58:06;;;;;;;89.57;55.40;;;31.80;99.90;;;;;;5037952;28;20108;-70
2022/05/18 05:00:33;;;;;;;47.38;27.88;;;31.80;99.90;;;;;;5050125;28;20071;-69
2022/05/18 05:03:00;;;;;;;41.08;27.50;;;31.80;99.90;;;;;;5054431;28;20024;-70
2022/05/18 05:05:28;;;;;;;34.20;28.63;;;31.70;99.90;;;;;;5052808;28;20339;-72
2022/05/18 05:07:55;;;;;;;561.35;505.55;;;31.70;99.90;;;;;;5048372;28;20041;-70
2022/05/18 05:10:23;;;;;;;33.05;27.27;;;31.80;99.90;;;;;;5048523;28;20025;-71
2022/05/18 05:12:50;;;;;;;23.48;19.40;;;31.90;99.90;;;;;;5053753;28;20433;-68
2022/05/18 05:15:16;;;;;;;26.23;21.08;;;32.00;99.90;;;;;;5053746;28;20047;-68
2022/05/18 05:17:43;;;;;;;31.98;23.58;;;32.00;99.90;;;;;;5053524;28;20048;-71
2022/05/18 05:20:11;;;;;;;30.00;24.65;;;31.90;99.90;;;;;;5052932;28;20112;-71
2022/05/18 05:22:37;;;;;;;30.60;23.42;;;31.90;99.90;;;;;;5052564;28;20033;-69
2022/05/18 05:25:04;;;;;;;27.77;21.83;;;31.90;99.90;;;;;;5054911;28;20013;-70
2022/05/18 05:27:31;;;;;;;27.75;21.98;;;31.80;99.90;;;;;;5055506;28;20021;-69
2022/05/18 05:29:58;;;;;;;25.02;21.65;;;31.90;99.90;;;;;;5054761;28;20082;-69
2022/05/18 05:32:25;;;;;;;28.60;21.83;;;31.90;99.90;;;;;;5054641;28;20132;-70
2022/05/18 05:34:52;;;;;;;31.98;24.15;;;31.90;99.90;;;;;;5055290;28;20114;-71
2022/05/18 05:37:19;;;;;;;33.17;22.75;;;32.00;99.90;;;;;;5045499;28;20025;-73
2022/05/18 05:39:46;;;;;;;29.33;23.30;;;32.00;99.90;;;;;;5057030;28;20075;-72
2022/05/18 05:42:12;;;;;;;25.95;22.45;;;32.00;99.90;;;;;;5055512;28;20066;-71
2022/05/18 05:44:39;;;;;;;27.55;22.98;;;32.00;99.90;;;;;;5053487;28;20032;-71
2022/05/18 05:47:08;;;;;;;28.23;23.35;;;32.00;99.90;;;;;;5055478;28;20104;-74
2022/05/18 05:49:35;;;;;;;29.73;24.33;;;32.00;99.90;;;;;;5054928;28;20029;-71
2022/05/18 05:52:01;;;;;;;33.80;23.02;;;32.00;99.90;;;;;;5053155;28;20071;-71
2022/05/18 05:54:28;;;;;;;26.33;22.02;;;32.10;99.90;;;;;;5052571;28;20032;-72
2022/05/18 05:56:55;;;;;;;32.38;27.75;;;32.10;99.90;;;;;;5053519;28;20029;-68
2022/05/18 05:59:22;;;;;;;32.10;26.30;;;32.10;99.90;;;;;;5053525;28;20023;-71
2022/05/18 06:01:49;;;;;;;86.85;70.75;;;32.20;99.90;;;;;;5053696;28;20067;-71
2022/05/18 06:04:17;;;;;;;32.03;27.02;;;32.20;99.90;;;;;;5046240;28;20021;-72
2022/05/18 06:06:44;;;;;;;31.60;24.58;;;32.20;99.90;;;;;;5052786;28;20132;-72
2022/05/18 06:09:11;;;;;;;26.85;22.15;;;32.30;99.90;;;;;;5051048;28;20041;-71
2022/05/18 06:11:38;;;;;;;31.08;23.35;;;32.30;99.90;;;;;;5050136;28;20032;-75
2022/05/18 06:14:05;;;;;;;26.40;21.40;;;32.50;99.90;;;;;;5050059;28;20032;-71
2022/05/18 06:16:32;;;;;;;25.45;20.33;;;32.50;98.60;;;;;;5051255;28;20029;-71
2022/05/18 06:18:59;;;;;;;30.42;23.40;;;32.50;97.80;;;;;;5052307;28;20025;-71
2022/05/18 06:21:27;;;;;;;30.42;22.35;;;32.60;98.90;;;;;;5042787;28;20057;-70
2022/05/18 06:23:54;;;;;;;24.95;21.88;;;32.80;98.70;;;;;;5050240;28;20017;-71
2022/05/18 06:26:21;;;;;;;24.10;20.55;;;32.90;98.00;;;;;;5040621;28;20027;-70
2022/05/18 06:28:48;;;;;;;35.70;22.95;;;33.00;98.70;;;;;;5052585;28;20118;-71
2022/05/18 06:31:15;;;;;;;28.10;22.15;;;33.00;97.70;;;;;;5049518;28;20115;-71
2022/05/18 06:33:41;;;;;;;29.27;21.45;;;33.10;97.80;;;;;;5042548;28;20021;-72
2022/05/18 06:36:08;;;;;;;27.67;22.02;;;33.20;97.80;;;;;;5040750;28;20027;-72
2022/05/18 06:38:35;;;;;;;26.95;22.30;;;33.20;96.70;;;;;;5044135;28;20459;-71
2022/05/18 06:43:57;;;;;;;35.80;23.23;;;33.40;96.00;;;;;;5043328;28;20060;-71
2022/05/18 06:46:25;;;;;;;37.50;22.58;;;33.50;95.90;;;;;;5053171;28;20020;-73
2022/05/18 06:48:53;;;;;;;25.98;22.08;;;33.60;95.20;;;;;;5047061;28;20090;-71
2022/05/18 06:51:24;;;;;;;29.55;22.67;;;33.50;93.80;;;;;;5047616;28;20052;-72
2022/05/18 06:53:52;;;;;;;23.63;20.45;;;33.40;95.10;;;;;;5047441;28;20033;-68
2022/05/18 06:56:21;;;;;;;23.58;21.13;;;33.50;94.30;;;;;;5045616;28;20029;-73
2022/05/18 06:58:51;;;;;;;26.60;22.45;;;33.50;94.50;;;;;;5042859;28;20061;-71
2022/05/18 07:01:18;;;;;;;22.95;20.55;;;33.50;95.20;;;;;;5043930;28;20446;-71
2022/05/18 07:03:46;;;;;;;25.75;22.88;;;33.40;95.20;;;;;;5032984;28;20037;-71
2022/05/18 07:06:14;;;;;;;23.35;20.30;;;33.40;95.40;;;;;;5052305;28;20025;-71
2022/05/18 07:08:42;;;;;;;27.77;21.92;;;33.40;95.00;;;;;;5051155;28;20021;-71
2022/05/18 07:11:08;;;;;;;25.75;22.08;;;33.40;95.00;;;;;;5028547;28;20437;-71
2022/05/18 07:13:36;;;;;;;25.40;21.48;;;33.40;96.10;;;;;;5047520;28;20446;-71
2022/05/18 07:16:04;;;;;;;31.77;24.40;;;33.30;94.60;;;;;;5053754;28;21302;-71
2022/05/18 07:18:31;;;;;;;27.42;22.70;;;33.30;94.80;;;;;;5049763;28;20100;-70
2022/05/18 07:20:59;;;;;;;25.88;22.55;;;33.20;95.30;;;;;;5053279;28;20029;-71
2022/05/18 07:23:26;;;;;;;27.63;24.60;;;33.20;94.90;;;;;;5051427;28;20544;-69
2022/05/18 07:25:55;;;;;;;28.25;25.10;;;33.20;96.10;;;;;;5046242;28;20017;-68
2022/05/18 07:28:22;;;;;;;29.45;23.42;;;33.30;94.60;;;;;;5044908;28;20474;-72
2022/05/18 07:30:51;;;;;;;26.27;23.48;;;33.30;94.90;;;;;;5046315;28;20041;-71
2022/05/18 07:33:20;;;;;;;26.92;23.00;;;33.30;94.10;;;;;;5053084;28;20029;-70
2022/05/18 07:35:49;;;;;;;24.55;21.95;;;33.30;94.90;;;;;;5047085;28;20453;-69
2022/05/18 07:38:17;;;;;;;25.95;22.60;;;33.30;94.60;;;;;;5045907;28;20131;-71
2022/05/18 07:40:43;;;;;;;24.15;21.30;;;33.20;95.00;;;;;;5045285;28;20032;-70
2022/05/18 07:43:10;;;;;;;25.95;21.88;;;33.20;94.20;;;;;;5044800;28;20017;-71
2022/05/18 07:45:37;;;;;;;24.95;21.55;;;33.10;94.20;;;;;;5044663;28;20056;-70
2022/05/18 07:48:04;;;;;;;27.95;22.52;;;33.10;95.10;;;;;;5046926;28;20017;-69
2022/05/18 07:50:31;;;;;;;27.27;22.73;;;33.30;95.10;;;;;;5045343;28;20055;-68
2022/05/18 07:52:59;;;;;;;23.52;21.00;;;33.30;94.90;;;;;;5046236;28;20021;-71
2022/05/18 07:55:27;;;;;;;26.75;21.83;;;33.30;94.70;;;;;;5041985;28;20493;-69
2022/05/18 07:57:54;;;;;;;27.30;21.38;;;33.30;94.90;;;;;;5036367;28;20032;-70
2022/05/18 08:00:23;;;;;;;24.98;21.75;;;33.30;94.30;;;;;;5039758;28;20025;-72
2022/05/18 08:02:51;;;;;;;33.25;23.77;;;33.20;94.90;;;;;;5050089;28;20056;-72
2022/05/18 08:05:18;;;;;;;31.55;23.15;;;33.20;96.20;;;;;;5051151;28;20040;-72
2022/05/18 08:07:46;;;;;;;87.18;65.93;;;33.20;95.50;;;;;;5053720;28;20466;-73
2022/05/18 08:15:50;;;;;;;60.63;52.80;;;33.10;95.10;;;;;;5053597;28;20416;-71
2022/05/18 08:18:18;;;;;;;44.50;36.88;;;33.10;94.50;;;;;;5082753;22;20056;-72
2022/05/18 08:20:46;;;;;;;48.40;39.35;;;33.00;94.40;;;;;;5074380;28;20032;-69
2022/05/18 08:23:14;;;;;;;29.10;23.35;;;33.00;93.50;;;;;;5074083;28;20527;-70
2022/05/18 08:25:46;;;;;;;37.33;21.77;;;33.00;94.20;;;;;;5075273;28;20374;-69
2022/05/18 08:28:14;;;;;;;49.50;23.67;;;33.10;94.40;;;;;;5075520;28;20032;-69
2022/05/18 08:30:42;;;;;;;25.85;19.98;;;33.10;94.70;;;;;;5075371;28;20029;-67
2022/05/18 08:33:09;;;;;;;44.38;21.88;;;33.10;92.90;;;;;;5074697;28;20029;-69
2022/05/18 08:35:36;;;;;;;31.63;22.92;;;33.00;94.20;;;;;;5072413;28;20649;-70
2022/05/18 08:38:03;;;;;;;26.17;20.67;;;33.10;94.60;;;;;;5069930;28;20020;-71
2022/05/18 08:40:29;;;;;;;22.92;20.20;;;33.00;94.80;;;;;;5055608;28;20024;-69
2022/05/18 08:42:58;;;;;;;28.73;20.58;;;33.00;93.60;;;;;;5073779;28;20061;-70
2022/05/18 08:45:30;;;;;;;36.42;22.15;;;33.00;94.00;;;;;;5074382;28;20024;-70
2022/05/18 08:47:57;;;;;;;25.67;20.50;;;33.00;95.00;;;;;;5075168;28;20118;-68
2022/05/18 08:50:24;;;;;;;27.40;21.92;;;33.00;94.60;;;;;;5074848;28;20027;-68
2022/05/18 08:53:10;;;;;;;27.70;22.73;;;33.00;94.10;;;;;;5075029;28;20107;-68
2022/05/18 08:55:38;;;;;;;29.92;24.42;;;33.00;93.90;;;;;;5073874;28;20028;-69
2022/05/18 08:58:11;;;;;;;39.33;24.67;;;33.00;93.90;;;;;;5074243;28;20036;-69
2022/05/18 09:00:44;;;;;;;32.63;24.88;;;33.00;94.60;;;;;;5081843;28;20028;-71
2022/05/18 09:03:25;;;;;;;25.35;21.95;;;33.00;94.20;;;;;;5080168;28;20027;-72
2022/05/18 09:05:57;;;;;;;33.13;25.48;;;33.00;93.90;;;;;;5080833;28;20020;-68
2022/05/18 09:08:27;;;;;;;;;;;33.00;94.20;;;;;;5082050;28;20069;-67
2022/05/18 09:10:58;;;;;;;28.83;23.50;;;33.00;94.00;;;;;;5081033;28;19909;-69
2022/05/18 09:13:25;;;;;;;34.58;25.67;;;32.90;93.30;;;;;;5083440;28;20073;-70
2022/05/18 09:16:21;;;;;;;35.85;25.27;;;33.00;92.80;;;;;;5076961;28;20020;-69
2022/05/18 09:19:04;;;;;;;39.13;28.20;;;32.90;93.00;;;;;;5075222;28;20463;-70
2022/05/18 09:21:38;;;;;;;34.22;26.83;;;32.90;92.60;;;;;;5074619;28;20077;-71
2022/05/18 09:24:29;;;;;;;29.98;24.38;;;32.90;92.80;;;;;;5074982;28;20028;-70
2022/05/18 09:27:05;;;;;;;37.03;24.70;;;32.80;92.60;;;;;;5082226;28;20043;-69
2022/05/18 09:29:38;;;;;;;28.27;22.77;;;32.80;93.00;;;;;;5081930;28;20092;-72
2022/05/18 09:32:25;;;;;;;70.60;54.03;;;32.80;92.40;;;;;;5081731;28;20052;-69
2022/05/18 09:35:05;;;;;;;49.80;42.15;;;32.80;93.50;;;;;;5077748;28;20024;-70
2022/05/18 09:37:50;;;;;;;55.40;43.88;;;32.80;92.80;;;;;;5082448;28;20052;-70
2022/05/18 09:40:28;;;;;;;49.20;37.05;;;32.80;92.60;;;;;;5084376;28;20442;-69
2022/05/18 09:43:19;;;;;;;61.63;47.28;;;32.70;93.50;;;;;;5079688;28;20021;-69
2022/05/18 09:45:48;;;;;;;44.63;33.70;;;32.80;93.10;;;;;;5079641;28;20024;-67
2022/05/18 09:48:31;;;;;;;41.58;30.33;;;32.80;93.60;;;;;;5084185;28;20095;-66
2022/05/18 09:50:59;;;;;;;33.42;29.08;;;32.70;93.70;;;;;;5081281;28;20054;-69
2022/05/18 09:53:26;;;;;;;37.72;29.63;;;32.70;93.70;;;;;;5081568;28;20377;-67
2022/05/18 09:55:53;;;;;;;45.10;37.42;;;32.70;94.40;;;;;;5073360;28;20116;-67
2022/05/18 09:58:36;;;;;;;57.80;46.50;;;32.70;94.60;;;;;;5072738;28;20371;-67
2022/05/18 10:10:17;;;;;;;46.95;36.15;;;32.50;94.20;;;;;;5071546;28;20465;-66
2022/05/18 10:12:47;;;;;;;37.05;30.15;;;32.40;93.90;;;;;;5071849;28;20498;-69
2022/05/18 10:15:38;;;;;;;105.40;92.82;;;32.40;94.10;;;;;;5070235;28;20100;-67
2022/05/18 10:18:34;;;;;;;40.40;31.80;;;32.40;93.50;;;;;;5011623;28;20168;-67
2022/05/18 10:21:05;;;;;;;63.80;48.03;;;32.40;93.90;;;;;;5009595;28;20029;-68
2022/05/18 10:23:42;;;;;;;76.60;50.25;;;32.30;94.70;;;;;;5011535;28;20074;-68
2022/05/18 10:26:19;;;;;;;55.42;42.67;;;32.20;96.70;;;;;;5010422;28;20029;-69
2022/05/18 10:29:12;;;;;;;59.88;42.35;;;32.00;98.00;;;;;;5006347;28;20046;-68
2022/05/18 10:32:05;;;;;;;64.45;43.08;;;31.90;99.20;;;;;;4932992;29;20123;-68
2022/05/18 10:34:40;;;;;;;69.28;45.13;;;31.60;99.30;;;;;;4939622;29;20031;-67
2022/05/18 10:37:12;;;;;;;40.83;30.27;;;31.60;99.50;;;;;;4953278;29;20045;-63
2022/05/18 10:39:42;;;;;;;43.78;26.73;;;31.40;99.70;;;;;;4953311;29;20031;-62
2022/05/18 10:42:39;;;;;;;40.13;25.52;;;31.40;99.90;;;;;;4953171;28;20038;-62
2022/05/18 10:45:32;;;;;;;67.10;50.95;;;31.40;99.90;;;;;;4934004;29;20112;-62
2022/05/18 10:48:16;;;;;;;45.50;32.08;;;31.30;99.90;;;;;;4934074;29;20042;-63
2022/05/18 10:50:45;;;;;;;46.92;31.20;;;31.20;99.90;;;;;;4932682;29;20064;-61
2022/05/18 10:53:13;;;;;;;72.90;49.75;;;31.10;99.90;;;;;;4947138;29;20039;-62
2022/05/18 10:56:07;;;;;;;70.05;55.78;;;31.00;99.90;;;;;;4983189;28;20034;-62
2022/05/18 10:58:56;;;;;;;63.08;49.33;;;31.10;99.90;;;;;;4997020;28;20023;-61
2022/05/18 11:01:30;;;;;;;45.10;34.28;;;31.10;99.90;;;;;;4923615;29;20082;-61
2022/05/18 11:04:06;;;;;;;85.80;68.88;;;31.00;99.90;;;;;;4925395;29;20048;-61
2022/05/18 11:06:37;;;;;;;115.72;91.95;;;31.00;99.90;;;;;;4924487;29;20083;-63
2022/05/18 11:09:25;;;;;;;101.97;90.85;;;31.00;99.90;;;;;;4960609;28;20477;-61
2022/05/18 11:11:53;;;;;;;94.47;82.03;;;30.90;99.90;;;;;;4983566;28;20113;-63
2022/05/18 11:14:31;;;;;;;91.18;70.78;;;30.90;99.90;;;;;;4988293;28;20033;-61
2022/05/18 11:17:11;;;;;;;59.60;40.35;;;30.90;99.90;;;;;;4984055;28;20053;-63
2022/05/18 11:19:39;;;;;;;45.60;31.73;;;31.00;99.90;;;;;;4988439;28;20046;-61
2022/05/18 11:22:34;;;;;;;39.75;30.08;;;31.00;99.90;;;;;;4989439;28;20026;-62
2022/05/18 11:25:27;;;;;;;44.40;30.52;;;31.00;99.90;;;;;;4962980;28;20039;-62
2022/05/18 11:28:01;;;;;;;;;;;31.00;99.90;;;;;;4928588;29;20091;-63
2022/05/18 11:30:32;;;;;;;33.78;22.20;;;30.90;99.90;;;;;;4927114;29;20280;-62
2022/05/18 11:33:10;;;;;;;24.90;18.67;;;30.80;99.90;;;;;;4923818;29;20067;-61
2022/05/18 11:35:42;;;;;;;30.85;20.40;;;30.70;99.60;;;;;;4922837;29;20032;-62
2022/05/18 11:38:28;;;;;;;86.65;60.70;;;30.60;99.90;;;;;;4923200;29;20071;-63
2022/05/18 11:40:56;;;;;;;48.95;34.72;;;30.50;99.90;;;;;;4917680;29;20045;-63
2022/05/18 11:43:44;;;;;;;46.40;35.05;;;30.50;99.90;;;;;;4917513;29;20076;-62
2022/05/18 11:46:31;;;;;;;44.17;26.95;;;30.50;99.90;;;;;;4880234;29;20109;-61
2022/05/18 11:49:10;;;;;;;44.67;35.25;;;30.50;99.90;;;;;;4881814;29;20045;-62
2022/05/18 11:51:56;;;;;;;48.20;33.80;;;30.50;99.90;;;;;;4891242;29;20036;-62
2022/05/18 11:54:32;;;;;;;110.00;85.70;;;30.50;99.90;;;;;;4899196;29;20052;-61
2022/05/18 11:57:08;;;;;;;61.42;46.80;;;30.40;99.90;;;;;;4898303;29;20068;-61
2022/05/18 12:00:15;;;;;;;56.60;41.15;;;30.40;99.90;;;;;;4898024;29;20474;-61
2022/05/18 12:02:59;;;;;;;33.72;25.27;;;30.50;99.90;;;;;;4897595;29;20052;-63
2022/05/18 12:05:58;;;;;;;36.53;23.52;;;30.50;99.90;;;;;;4897474;29;20083;-63
2022/05/18 12:08:32;;;;;;;32.38;24.98;;;30.50;99.90;;;;;;4883315;29;20030;-63
2022/05/18 12:11:23;;;;;;;26.92;21.65;;;30.40;99.90;;;;;;4901741;29;20049;-62
2022/05/18 12:13:51;;;;;;;25.95;18.88;;;30.30;99.90;;;;;;4926209;29;20517;-64
2022/05/18 12:16:33;;;;;;;27.48;20.92;;;30.30;99.90;;;;;;4923056;29;20115;-62
2022/05/18 12:19:08;;;;;;;31.50;20.50;;;30.30;99.90;;;;;;4921936;29;20062;-62
2022/05/18 12:21:41;;;;;;;29.00;21.48;;;30.20;99.90;;;;;;4923159;29;20035;-62
2022/05/18 12:24:10;;;;;;;32.05;21.23;;;30.30;99.90;;;;;;4923536;29;20028;-62
2022/05/18 12:26:41;;;;;;;64.80;40.45;;;30.30;99.90;;;;;;4919625;29;20032;-63
2022/05/18 12:29:10;;;;;;;41.42;28.15;;;30.30;99.90;;;;;;4924384;29;20113;-62
2022/05/18 12:31:38;;;;;;;37.03;24.25;;;30.30;99.90;;;;;;4906117;29;20481;-62
2022/05/18 12:34:16;;;;;;;36.85;25.42;;;30.10;99.90;;;;;;4939992;28;20037;-63
2022/05/18 12:36:43;;;;;;;43.83;29.30;;;30.10;99.90;;;;;;5038788;28;20044;-62
2022/05/18 12:39:34;;;;;;;47.47;30.35;;;30.10;99.90;;;;;;5085735;28;20021;-62
2022/05/18 12:42:03;;;;;;;37.85;26.85;;;30.10;99.90;;;;;;5024809;28;20501;-62
2022/05/18 12:44:41;;;;;;;58.10;43.25;;;30.10;99.90;;;;;;5032728;28;20206;-62
2022/05/18 12:47:21;;;;;;;68.35;45.17;;;30.10;99.90;;;;;;5029844;28;20060;-61
2022/05/18 12:49:56;;;;;;;28.15;20.08;;;30.00;99.90;;;;;;5033396;28;20026;-61
2022/05/18 12:52:54;;;;;;;27.50;19.23;;;29.90;99.90;;;;;;5033208;28;20037;-62
2022/05/18 12:55:32;;;;;;;72.57;47.20;;;29.90;99.90;;;;;;5030958;28;20049;-61
2022/05/18 12:58:09;;;;;;;53.38;44.05;;;29.80;99.90;;;;;;5032240;28;20021;-62
2022/05/18 13:00:50;;;;;;;29.20;20.38;;;29.80;99.90;;;;;;5031198;28;20620;-61
2022/05/18 13:03:16;;;;;;;23.80;16.60;;;29.80;99.90;;;;;;5031680;28;20104;-62
2022/05/18 13:05:51;;;;;;;27.55;19.52;;;29.80;99.90;;;;;;5032140;28;20022;-63
2022/05/18 13:08:18;;;;;;;27.83;17.63;;;29.80;99.90;;;;;;5031697;28;20033;-62
2022/05/18 13:11:09;;;;;;;38.17;22.52;;;29.70;99.90;;;;;;5031507;28;20477;-61